sensor_id;sensor_type;location;lat;lon;timestamp;pressure;altitude;pressure_sealevel;temperature;humidity
27685;BME280;46113;50.130;8.526;2023-05-20T00:01:26;99528.75;;;6.32;68.67
27685;BME280;46113;50.130;8.526;2023-05-20T00:03:53;99527.09;;;6.30;68.78
27685;BME280;46113;50.130;8.526;2023-05-20T00:06:20;99523.00;;;6.46;68.07
27685;BME280;46113;50.130;8.526;2023-05-20T00:08:47;99524.03;;;6.42;68.19
27685;BME280;46113;50.130;8.526;2023-05-20T00:11:13;99516.66;;;6.52;68.55
27685;BME280;46113;50.130;8.526;2023-05-20T00:13:40;99520.22;;;6.75;67.26
27685;BME280;46113;50.130;8.526;2023-05-20T00:16:06;99514.19;;;6.47;69.71
27685;BME280;46113;50.130;8.526;2023-05-20T00:18:33;99501.50;;;6.83;68.23
27685;BME280;46113;50.130;8.526;2023-05-20T00:21:00;99502.97;;;6.90;67.04
27685;BME280;46113;50.130;8.526;2023-05-20T00:23:27;99508.00;;;6.96;66.19
27685;BME280;46113;50.130;8.526;2023-05-20T00:25:53;99512.41;;;6.72;67.98
27685;BME280;46113;50.130;8.526;2023-05-20T00:28:20;99512.03;;;6.83;66.81
27685;BME280;46113;50.130;8.526;2023-05-20T00:30:49;99513.63;;;6.87;66.77
27685;BME280;46113;50.130;8.526;2023-05-20T00:33:15;99507.00;;;6.52;68.51
27685;BME280;46113;50.130;8.526;2023-05-20T00:35:42;99507.19;;;6.48;68.74
27685;BME280;46113;50.130;8.526;2023-05-20T00:38:09;99503.00;;;6.66;67.30
27685;BME280;46113;50.130;8.526;2023-05-20T00:40:36;99499.31;;;6.48;68.75
27685;BME280;46113;50.130;8.526;2023-05-20T00:43:02;99502.47;;;6.56;67.93
27685;BME280;46113;50.130;8.526;2023-05-20T00:45:29;99498.09;;;6.57;67.50
27685;BME280;46113;50.130;8.526;2023-05-20T00:47:56;99498.53;;;6.44;68.06
27685;BME280;46113;50.130;8.526;2023-05-20T00:50:27;99493.19;;;6.47;68.48
27685;BME280;46113;50.130;8.526;2023-05-20T00:52:54;99499.41;;;6.45;68.25
27685;BME280;46113;50.130;8.526;2023-05-20T00:55:21;99494.66;;;6.31;68.49
27685;BME280;46113;50.130;8.526;2023-05-20T00:57:48;99491.34;;;6.49;67.76
27685;BME280;46113;50.130;8.526;2023-05-20T01:00:15;99483.69;;;6.43;68.74
27685;BME280;46113;50.130;8.526;2023-05-20T01:02:42;99487.00;;;6.48;69.54
27685;BME280;46113;50.130;8.526;2023-05-20T01:05:09;99495.72;;;6.73;68.56
27685;BME280;46113;50.130;8.526;2023-05-20T01:07:35;99494.28;;;6.88;68.06
27685;BME280;46113;50.130;8.526;2023-05-20T01:10:03;99487.66;;;7.01;68.19
27685;BME280;46113;50.130;8.526;2023-05-20T01:12:38;99498.47;;;7.16;67.53
27685;BME280;46113;50.130;8.526;2023-05-20T01:15:10;99497.13;;;7.05;67.13
27685;BME280;46113;50.130;8.526;2023-05-20T01:17:41;99495.50;;;7.25;66.86
27685;BME280;46113;50.130;8.526;2023-05-20T01:20:12;99493.94;;;6.97;67.64
27685;BME280;46113;50.130;8.526;2023-05-20T01:22:52;99488.53;;;7.00;67.23
27685;BME280;46113;50.130;8.526;2023-05-20T01:25:20;99483.94;;;7.07;67.40
27685;BME280;46113;50.130;8.526;2023-05-20T01:27:48;99486.81;;;7.23;66.88
27685;BME280;46113;50.130;8.526;2023-05-20T01:30:15;99484.84;;;7.28;66.32
27685;BME280;46113;50.130;8.526;2023-05-20T01:32:47;99483.50;;;7.40;66.28
27685;BME280;46113;50.130;8.526;2023-05-20T01:35:16;99476.38;;;7.42;67.01
27685;BME280;46113;50.130;8.526;2023-05-20T01:37:43;99475.94;;;7.53;66.55
27685;BME280;46113;50.130;8.526;2023-05-20T01:40:14;99474.81;;;7.59;67.10
27685;BME280;46113;50.130;8.526;2023-05-20T01:42:42;99474.47;;;7.46;67.14
27685;BME280;46113;50.130;8.526;2023-05-20T01:45:11;99471.00;;;7.46;68.08
27685;BME280;46113;50.130;8.526;2023-05-20T01:47:37;99473.03;;;7.60;66.95
27685;BME280;46113;50.130;8.526;2023-05-20T01:50:04;99474.56;;;7.44;66.89
27685;BME280;46113;50.130;8.526;2023-05-20T01:52:32;99468.78;;;7.57;67.64
27685;BME280;46113;50.130;8.526;2023-05-20T01:54:59;99464.03;;;7.65;66.86
27685;BME280;46113;50.130;8.526;2023-05-20T01:57:25;99469.97;;;7.70;66.91
27685;BME280;46113;50.130;8.526;2023-05-20T01:59:52;99461.41;;;7.44;67.74
27685;BME280;46113;50.130;8.526;2023-05-20T02:02:20;99460.88;;;7.57;68.10
27685;BME280;46113;50.130;8.526;2023-05-20T02:04:47;99460.41;;;7.68;67.55
27685;BME280;46113;50.130;8.526;2023-05-20T02:07:15;99457.31;;;7.58;67.30
27685;BME280;46113;50.130;8.526;2023-05-20T02:09:42;99453.84;;;7.78;66.16
27685;BME280;46113;50.130;8.526;2023-05-20T02:12:09;99451.66;;;7.67;66.71
27685;BME280;46113;50.130;8.526;2023-05-20T02:14:46;99447.03;;;7.93;66.48
27685;BME280;46113;50.130;8.526;2023-05-20T02:17:15;99441.75;;;7.93;66.82
27685;BME280;46113;50.130;8.526;2023-05-20T02:19:43;99440.47;;;7.62;67.23
27685;BME280;46113;50.130;8.526;2023-05-20T02:22:10;99442.81;;;7.89;65.89
27685;BME280;46113;50.130;8.526;2023-05-20T02:24:37;99448.44;;;7.61;67.03
27685;BME280;46113;50.130;8.526;2023-05-20T02:27:04;99448.47;;;7.59;67.28
27685;BME280;46113;50.130;8.526;2023-05-20T02:29:32;99434.16;;;8.06;66.62
27685;BME280;46113;50.130;8.526;2023-05-20T02:31:59;99441.53;;;8.19;65.83
27685;BME280;46113;50.130;8.526;2023-05-20T02:34:27;99438.63;;;8.25;66.56
27685;BME280;46113;50.130;8.526;2023-05-20T02:36:56;99439.84;;;8.18;67.93
27685;BME280;46113;50.130;8.526;2023-05-20T02:39:22;99432.00;;;8.35;67.39
27685;BME280;46113;50.130;8.526;2023-05-20T02:41:49;99435.16;;;8.44;66.56
27685;BME280;46113;50.130;8.526;2023-05-20T02:44:16;99431.44;;;8.48;66.07
27685;BME280;46113;50.130;8.526;2023-05-20T02:46:43;99430.00;;;8.41;66.33
27685;BME280;46113;50.130;8.526;2023-05-20T02:49:10;99433.53;;;8.60;65.87
27685;BME280;46113;50.130;8.526;2023-05-20T02:51:36;99423.56;;;8.67;64.47
27685;BME280;46113;50.130;8.526;2023-05-20T02:54:03;99419.38;;;8.81;64.06
27685;BME280;46113;50.130;8.526;2023-05-20T02:56:30;99424.25;;;8.71;65.20
27685;BME280;46113;50.130;8.526;2023-05-20T02:59:00;99424.03;;;8.75;64.26
27685;BME280;46113;50.130;8.526;2023-05-20T03:01:26;99430.06;;;8.97;63.55
27685;BME280;46113;50.130;8.526;2023-05-20T03:03:54;99423.84;;;8.98;63.65
27685;BME280;46113;50.130;8.526;2023-05-20T03:06:21;99420.38;;;8.78;64.42
27685;BME280;46113;50.130;8.526;2023-05-20T03:08:48;99420.06;;;9.03;64.04
27685;BME280;46113;50.130;8.526;2023-05-20T03:11:15;99416.78;;;8.98;63.97
27685;BME280;46113;50.130;8.526;2023-05-20T03:13:41;99414.78;;;9.03;63.24
27685;BME280;46113;50.130;8.526;2023-05-20T03:16:09;99414.09;;;9.18;63.51
27685;BME280;46113;50.130;8.526;2023-05-20T03:18:36;99422.94;;;8.99;65.05
27685;BME280;46113;50.130;8.526;2023-05-20T03:21:03;99419.69;;;8.94;64.91
27685;BME280;46113;50.130;8.526;2023-05-20T03:23:30;99417.91;;;9.12;64.39
27685;BME280;46113;50.130;8.526;2023-05-20T03:25:57;99406.56;;;9.10;63.81
27685;BME280;46113;50.130;8.526;2023-05-20T03:28:23;99423.00;;;8.97;63.21
27685;BME280;46113;50.130;8.526;2023-05-20T03:30:50;99411.75;;;8.94;64.08
27685;BME280;46113;50.130;8.526;2023-05-20T03:33:17;99420.63;;;9.10;63.25
27685;BME280;46113;50.130;8.526;2023-05-20T03:35:44;99421.69;;;9.06;63.53
27685;BME280;46113;50.130;8.526;2023-05-20T03:38:13;99415.78;;;9.01;63.48
27685;BME280;46113;50.130;8.526;2023-05-20T03:40:39;99410.59;;;8.99;64.02
27685;BME280;46113;50.130;8.526;2023-05-20T03:43:06;99404.72;;;9.12;63.46
27685;BME280;46113;50.130;8.526;2023-05-20T03:45:33;99406.41;;;9.30;63.42
27685;BME280;46113;50.130;8.526;2023-05-20T03:48:04;99410.22;;;9.07;63.65
27685;BME280;46113;50.130;8.526;2023-05-20T03:50:32;99413.34;;;9.15;63.40
27685;BME280;46113;50.130;8.526;2023-05-20T03:52:59;99413.19;;;9.36;64.01
27685;BME280;46113;50.130;8.526;2023-05-20T03:55:31;99414.09;;;9.18;63.80
27685;BME280;46113;50.130;8.526;2023-05-20T03:57:59;99423.41;;;9.07;63.89
27685;BME280;46113;50.130;8.526;2023-05-20T04:00:26;99415.66;;;9.22;63.19
27685;BME280;46113;50.130;8.526;2023-05-20T04:02:56;99416.22;;;9.28;63.42
27685;BME280;46113;50.130;8.526;2023-05-20T04:05:23;99409.00;;;9.14;63.82
27685;BME280;46113;50.130;8.526;2023-05-20T04:07:50;99418.75;;;9.12;63.20
27685;BME280;46113;50.130;8.526;2023-05-20T04:10:19;99420.00;;;9.05;63.84
27685;BME280;46113;50.130;8.526;2023-05-20T04:12:46;99416.59;;;9.21;63.36
27685;BME280;46113;50.130;8.526;2023-05-20T04:15:13;99413.09;;;9.55;62.77
27685;BME280;46113;50.130;8.526;2023-05-20T04:17:48;99414.28;;;8.95;64.18
27685;BME280;46113;50.130;8.526;2023-05-20T04:20:16;99420.16;;;9.37;63.60
27685;BME280;46113;50.130;8.526;2023-05-20T04:22:43;99424.44;;;9.40;62.80
27685;BME280;46113;50.130;8.526;2023-05-20T04:25:11;99426.59;;;9.32;63.24
27685;BME280;46113;50.130;8.526;2023-05-20T04:27:38;99423.72;;;9.72;62.57
27685;BME280;46113;50.130;8.526;2023-05-20T04:30:06;99422.75;;;9.39;63.01
27685;BME280;46113;50.130;8.526;2023-05-20T04:32:37;99428.63;;;9.62;62.31
27685;BME280;46113;50.130;8.526;2023-05-20T04:35:07;99424.97;;;9.29;63.07
27685;BME280;46113;50.130;8.526;2023-05-20T04:37:40;99421.72;;;9.59;63.53
27685;BME280;46113;50.130;8.526;2023-05-20T04:40:09;99433.91;;;9.62;62.79
27685;BME280;46113;50.130;8.526;2023-05-20T04:42:38;99420.16;;;9.73;62.41
27685;BME280;46113;50.130;8.526;2023-05-20T04:45:05;99427.84;;;9.60;62.83
27685;BME280;46113;50.130;8.526;2023-05-20T04:47:35;99417.66;;;9.69;62.33
27685;BME280;46113;50.130;8.526;2023-05-20T04:50:09;99417.34;;;9.93;62.24
27685;BME280;46113;50.130;8.526;2023-05-20T04:52:39;99416.53;;;10.09;61.65
27685;BME280;46113;50.130;8.526;2023-05-20T04:55:08;99416.94;;;10.01;61.97
27685;BME280;46113;50.130;8.526;2023-05-20T04:57:38;99411.03;;;9.96;61.95
27685;BME280;46113;50.130;8.526;2023-05-20T05:00:10;99409.22;;;9.80;62.28
27685;BME280;46113;50.130;8.526;2023-05-20T05:02:38;99414.63;;;9.95;61.76
27685;BME280;46113;50.130;8.526;2023-05-20T05:05:06;99413.75;;;9.94;61.91
27685;BME280;46113;50.130;8.526;2023-05-20T05:07:34;99415.84;;;10.05;61.33
27685;BME280;46113;50.130;8.526;2023-05-20T05:10:05;99413.88;;;9.75;62.62
27685;BME280;46113;50.130;8.526;2023-05-20T05:12:32;99416.09;;;10.01;61.50
27685;BME280;46113;50.130;8.526;2023-05-20T05:14:59;99415.91;;;9.88;61.66
27685;BME280;46113;50.130;8.526;2023-05-20T05:17:26;99406.38;;;10.01;61.25
27685;BME280;46113;50.130;8.526;2023-05-20T05:19:55;99416.13;;;10.17;61.03
27685;BME280;46113;50.130;8.526;2023-05-20T05:22:23;99404.94;;;9.95;62.10
27685;BME280;46113;50.130;8.526;2023-05-20T05:24:50;99392.59;;;9.78;62.54
27685;BME280;46113;50.130;8.526;2023-05-20T05:27:17;99403.69;;;10.19;62.23
27685;BME280;46113;50.130;8.526;2023-05-20T05:29:44;99399.09;;;10.39;60.67
27685;BME280;46113;50.130;8.526;2023-05-20T05:32:11;99400.69;;;10.09;61.15
27685;BME280;46113;50.130;8.526;2023-05-20T05:34:37;99400.97;;;10.20;61.29
27685;BME280;46113;50.130;8.526;2023-05-20T05:37:04;99399.00;;;10.40;60.82
27685;BME280;46113;50.130;8.526;2023-05-20T05:39:31;99385.88;;;10.55;60.28
27685;BME280;46113;50.130;8.526;2023-05-20T05:42:00;99393.38;;;10.62;59.93
27685;BME280;46113;50.130;8.526;2023-05-20T05:44:26;99396.53;;;10.69;59.73
27685;BME280;46113;50.130;8.526;2023-05-20T05:46:53;99385.47;;;10.46;60.68
27685;BME280;46113;50.130;8.526;2023-05-20T05:49:20;99391.81;;;10.91;59.00
27685;BME280;46113;50.130;8.526;2023-05-20T05:51:47;99399.19;;;11.01;59.21
27685;BME280;46113;50.130;8.526;2023-05-20T05:54:13;99400.31;;;10.97;58.85
27685;BME280;46113;50.130;8.526;2023-05-20T05:56:40;99387.31;;;10.77;60.04
27685;BME280;46113;50.130;8.526;2023-05-20T05:59:07;99393.34;;;11.11;58.40
27685;BME280;46113;50.130;8.526;2023-05-20T06:01:34;99392.44;;;10.96;58.99
27685;BME280;46113;50.130;8.526;2023-05-20T06:04:00;99394.91;;;10.67;59.95
27685;BME280;46113;50.130;8.526;2023-05-20T06:06:30;99391.47;;;10.81;59.85
27685;BME280;46113;50.130;8.526;2023-05-20T06:08:57;99389.94;;;10.93;60.18
27685;BME280;46113;50.130;8.526;2023-05-20T06:11:24;99377.75;;;11.51;57.98
27685;BME280;46113;50.130;8.526;2023-05-20T06:13:51;99372.38;;;11.97;57.34
27685;BME280;46113;50.130;8.526;2023-05-20T06:16:18;99364.41;;;12.68;55.40
27685;BME280;46113;50.130;8.526;2023-05-20T06:18:45;99369.72;;;12.68;54.44
27685;BME280;46113;50.130;8.526;2023-05-20T06:21:15;99371.50;;;12.54;55.32
27685;BME280;46113;50.130;8.526;2023-05-20T06:23:42;99369.31;;;12.46;55.39
27685;BME280;46113;50.130;8.526;2023-05-20T06:26:10;99366.69;;;12.46;54.88
27685;BME280;46113;50.130;8.526;2023-05-20T06:28:38;99369.16;;;13.18;53.39
27685;BME280;46113;50.130;8.526;2023-05-20T06:31:04;99365.47;;;13.59;52.67
27685;BME280;46113;50.130;8.526;2023-05-20T06:33:34;99375.19;;;13.60;51.98
27685;BME280;46113;50.130;8.526;2023-05-20T06:36:06;99370.41;;;13.78;51.92
27685;BME280;46113;50.130;8.526;2023-05-20T06:38:33;99371.56;;;13.48;52.85
27685;BME280;46113;50.130;8.526;2023-05-20T06:41:01;99367.03;;;13.10;53.31
27685;BME280;46113;50.130;8.526;2023-05-20T06:43:29;99366.66;;;14.20;52.00
27685;BME280;46113;50.130;8.526;2023-05-20T06:46:07;99358.88;;;13.91;51.12
27685;BME280;46113;50.130;8.526;2023-05-20T06:48:40;99356.31;;;14.53;50.31
27685;BME280;46113;50.130;8.526;2023-05-20T06:51:07;99360.00;;;14.88;49.18
27685;BME280;46113;50.130;8.526;2023-05-20T06:53:35;99351.59;;;15.41;48.84
27685;BME280;46113;50.130;8.526;2023-05-20T06:56:02;99357.34;;;14.39;50.13
27685;BME280;46113;50.130;8.526;2023-05-20T06:58:31;99357.41;;;13.87;52.46
27685;BME280;46113;50.130;8.526;2023-05-20T07:00:58;99354.00;;;13.33;52.20
27685;BME280;46113;50.130;8.526;2023-05-20T07:03:26;99345.78;;;14.27;51.27
27685;BME280;46113;50.130;8.526;2023-05-20T07:05:52;99355.75;;;14.23;50.44
27685;BME280;46113;50.130;8.526;2023-05-20T07:08:20;99357.22;;;13.51;52.52
27685;BME280;46113;50.130;8.526;2023-05-20T07:10:47;99356.84;;;13.17;53.43
27685;BME280;46113;50.130;8.526;2023-05-20T07:13:17;99347.50;;;13.24;53.63
27685;BME280;46113;50.130;8.526;2023-05-20T07:15:48;99350.25;;;13.09;54.17
27685;BME280;46113;50.130;8.526;2023-05-20T07:18:15;99337.75;;;13.63;53.08
27685;BME280;46113;50.130;8.526;2023-05-20T07:20:46;99346.22;;;13.82;52.04
27685;BME280;46113;50.130;8.526;2023-05-20T07:23:27;99340.09;;;13.55;52.72
27685;BME280;46113;50.130;8.526;2023-05-20T07:25:55;99336.66;;;13.79;53.08
27685;BME280;46113;50.130;8.526;2023-05-20T07:28:22;99333.19;;;14.29;51.55
27685;BME280;46113;50.130;8.526;2023-05-20T07:30:49;99330.44;;;16.08;47.45
27685;BME280;46113;50.130;8.526;2023-05-20T07:33:22;99321.66;;;16.85;46.56
27685;BME280;46113;50.130;8.526;2023-05-20T07:35:55;99327.44;;;18.16;42.99
27685;BME280;46113;50.130;8.526;2023-05-20T07:38:25;99344.00;;;17.47;43.60
27685;BME280;46113;50.130;8.526;2023-05-20T07:40:57;99335.56;;;17.00;44.81
27685;BME280;46113;50.130;8.526;2023-05-20T07:43:24;99325.69;;;17.21;44.34
27685;BME280;46113;50.130;8.526;2023-05-20T07:45:50;99332.28;;;15.96;46.67
27685;BME280;46113;50.130;8.526;2023-05-20T07:48:17;99324.56;;;17.98;43.28
27685;BME280;46113;50.130;8.526;2023-05-20T07:50:44;99332.88;;;17.64;43.89
27685;BME280;46113;50.130;8.526;2023-05-20T07:53:13;99336.09;;;16.38;45.83
27685;BME280;46113;50.130;8.526;2023-05-20T07:55:40;99324.63;;;16.03;47.33
27685;BME280;46113;50.130;8.526;2023-05-20T07:58:07;99321.31;;;16.22;45.88
27685;BME280;46113;50.130;8.526;2023-05-20T08:00:34;99330.75;;;15.23;48.90
27685;BME280;46113;50.130;8.526;2023-05-20T08:03:04;99330.31;;;14.32;50.36
27685;BME280;46113;50.130;8.526;2023-05-20T08:06:12;99332.84;;;13.70;52.02
27685;BME280;46113;50.130;8.526;2023-05-20T08:08:40;99341.69;;;13.84;52.33
27685;BME280;46113;50.130;8.526;2023-05-20T08:11:16;99328.38;;;14.34;52.24
27685;BME280;46113;50.130;8.526;2023-05-20T08:13:42;99331.84;;;14.72;50.87
27685;BME280;46113;50.130;8.526;2023-05-20T08:16:10;99322.13;;;14.60;51.25
27685;BME280;46113;50.130;8.526;2023-05-20T08:18:37;99311.66;;;15.75;51.60
27685;BME280;46113;50.130;8.526;2023-05-20T08:21:05;99327.06;;;15.95;50.73
27685;BME280;46113;50.130;8.526;2023-05-20T08:23:33;99318.34;;;16.92;51.04
27685;BME280;46113;50.130;8.526;2023-05-20T08:26:05;99319.31;;;17.34;45.34
27685;BME280;46113;50.130;8.526;2023-05-20T08:28:34;99327.19;;;17.78;47.32
27685;BME280;46113;50.130;8.526;2023-05-20T08:31:03;99327.19;;;16.72;49.90
27685;BME280;46113;50.130;8.526;2023-05-20T08:33:31;99316.66;;;15.10;52.93
27685;BME280;46113;50.130;8.526;2023-05-20T08:35:58;99314.81;;;14.26;55.07
27685;BME280;46113;50.130;8.526;2023-05-20T08:38:25;99318.94;;;13.41;54.69
27685;BME280;46113;50.130;8.526;2023-05-20T08:40:55;99309.16;;;13.41;54.55
27685;BME280;46113;50.130;8.526;2023-05-20T08:43:23;99309.59;;;14.24;56.66
27685;BME280;46113;50.130;8.526;2023-05-20T08:45:51;99310.00;;;14.91;55.13
27685;BME280;46113;50.130;8.526;2023-05-20T08:48:21;99294.06;;;16.07;51.96
27685;BME280;46113;50.130;8.526;2023-05-20T08:50:52;99297.81;;;16.16;48.36
27685;BME280;46113;50.130;8.526;2023-05-20T08:53:22;99305.72;;;17.99;46.88
27685;BME280;46113;50.130;8.526;2023-05-20T08:55:54;99298.53;;;19.58;42.25
27685;BME280;46113;50.130;8.526;2023-05-20T08:58:30;99297.94;;;21.29;37.90
27685;BME280;46113;50.130;8.526;2023-05-20T09:00:58;99305.81;;;20.50;39.33
27685;BME280;46113;50.130;8.526;2023-05-20T09:03:25;99303.22;;;22.94;36.15
27685;BME280;46113;50.130;8.526;2023-05-20T09:05:52;99313.75;;;20.23;38.22
27685;BME280;46113;50.130;8.526;2023-05-20T09:08:23;99306.03;;;20.20;40.88
27685;BME280;46113;50.130;8.526;2023-05-20T09:10:51;99319.16;;;19.48;40.71
27685;BME280;46113;50.130;8.526;2023-05-20T09:13:19;99325.53;;;17.13;44.75
27685;BME280;46113;50.130;8.526;2023-05-20T09:15:48;99320.97;;;17.04;47.46
27685;BME280;46113;50.130;8.526;2023-05-20T09:18:15;99315.34;;;16.41;47.13
27685;BME280;46113;50.130;8.526;2023-05-20T09:20:46;99321.38;;;15.99;47.96
27685;BME280;46113;50.130;8.526;2023-05-20T09:23:12;99318.03;;;15.39;49.78
27685;BME280;46113;50.130;8.526;2023-05-20T09:25:39;99310.19;;;15.71;50.75
27685;BME280;46113;50.130;8.526;2023-05-20T09:28:06;99307.97;;;15.42;50.52
27685;BME280;46113;50.130;8.526;2023-05-20T09:30:34;99307.88;;;15.44;49.77
27685;BME280;46113;50.130;8.526;2023-05-20T09:33:03;99308.47;;;15.36;50.88
27685;BME280;46113;50.130;8.526;2023-05-20T09:35:34;99314.06;;;14.97;50.07
27685;BME280;46113;50.130;8.526;2023-05-20T09:38:04;99317.31;;;14.65;51.76
27685;BME280;46113;50.130;8.526;2023-05-20T09:40:31;99311.34;;;14.61;51.83
27685;BME280;46113;50.130;8.526;2023-05-20T09:43:02;99314.63;;;14.40;52.14
27685;BME280;46113;50.130;8.526;2023-05-20T09:45:30;99318.91;;;14.05;51.92
27685;BME280;46113;50.130;8.526;2023-05-20T09:47:56;99308.31;;;14.54;52.42
27685;BME280;46113;50.130;8.526;2023-05-20T09:50:26;99306.47;;;14.30;51.59
27685;BME280;46113;50.130;8.526;2023-05-20T09:52:54;99309.66;;;15.32;49.81
27685;BME280;46113;50.130;8.526;2023-05-20T09:55:23;99310.13;;;15.26;49.88
27685;BME280;46113;50.130;8.526;2023-05-20T09:57:50;99312.25;;;15.56;50.00
27685;BME280;46113;50.130;8.526;2023-05-20T10:00:19;99320.28;;;14.60;50.22
27685;BME280;46113;50.130;8.526;2023-05-20T10:02:49;99306.84;;;14.00;51.50
27685;BME280;46113;50.130;8.526;2023-05-20T10:08:13;99300.78;;;14.73;52.21
27685;BME280;46113;50.130;8.526;2023-05-20T10:14:08;99293.94;;;15.40;48.71
27685;BME280;46113;50.130;8.526;2023-05-20T10:19:46;99296.97;;;15.35;49.03
27685;BME280;46113;50.130;8.526;2023-05-20T10:22:07;99291.78;;;14.98;51.04
27685;BME280;46113;50.130;8.526;2023-05-20T10:24:36;99284.50;;;15.59;50.96
27685;BME280;46113;50.130;8.526;2023-05-20T10:27:07;99276.59;;;16.14;50.56
27685;BME280;46113;50.130;8.526;2023-05-20T10:29:45;99276.03;;;15.54;49.62
27685;BME280;46113;50.130;8.526;2023-05-20T10:32:23;99284.34;;;14.90;50.55
27685;BME280;46113;50.130;8.526;2023-05-20T10:34:50;99286.72;;;14.22;51.74
27685;BME280;46113;50.130;8.526;2023-05-20T10:37:32;99286.91;;;13.81;52.81
27685;BME280;46113;50.130;8.526;2023-05-20T10:40:12;99282.53;;;14.55;51.50
27685;BME280;46113;50.130;8.526;2023-05-20T10:42:40;99270.41;;;14.75;50.95
27685;BME280;46113;50.130;8.526;2023-05-20T10:45:08;99263.63;;;15.18;50.37
27685;BME280;46113;50.130;8.526;2023-05-20T10:47:35;99267.13;;;15.07;50.49
27685;BME280;46113;50.130;8.526;2023-05-20T10:50:02;99258.34;;;14.58;52.20
27685;BME280;46113;50.130;8.526;2023-05-20T10:52:35;99261.81;;;14.71;51.09
27685;BME280;46113;50.130;8.526;2023-05-20T10:55:02;99263.19;;;14.28;51.93
27685;BME280;46113;50.130;8.526;2023-05-20T10:57:30;99260.19;;;14.33;51.86
27685;BME280;46113;50.130;8.526;2023-05-20T10:59:59;99262.00;;;14.57;51.20
27685;BME280;46113;50.130;8.526;2023-05-20T11:02:26;99266.69;;;14.29;51.70
27685;BME280;46113;50.130;8.526;2023-05-20T11:04:57;99261.16;;;14.68;51.19
27685;BME280;46113;50.130;8.526;2023-05-20T11:07:28;99258.31;;;15.30;50.38
27685;BME280;46113;50.130;8.526;2023-05-20T11:09:58;99259.00;;;14.73;50.59
27685;BME280;46113;50.130;8.526;2023-05-20T11:12:26;99260.00;;;14.48;52.19
27685;BME280;46113;50.130;8.526;2023-05-20T11:14:53;99254.31;;;14.77;50.88
27685;BME280;46113;50.130;8.526;2023-05-20T11:17:20;99244.53;;;15.47;49.92
27685;BME280;46113;50.130;8.526;2023-05-20T11:19:47;99256.84;;;15.14;50.20
27685;BME280;46113;50.130;8.526;2023-05-20T11:22:14;99235.78;;;15.45;50.53
27685;BME280;46113;50.130;8.526;2023-05-20T11:24:41;99239.28;;;15.12;51.04
27685;BME280;46113;50.130;8.526;2023-05-20T11:27:07;99241.94;;;15.23;49.97
27685;BME280;46113;50.130;8.526;2023-05-20T11:29:34;99243.16;;;14.71;50.19
27685;BME280;46113;50.130;8.526;2023-05-20T11:32:01;99254.00;;;14.33;51.55
27685;BME280;46113;50.130;8.526;2023-05-20T11:34:35;99233.63;;;14.80;51.10
27685;BME280;46113;50.130;8.526;2023-05-20T11:37:06;99236.44;;;14.30;52.24
27685;BME280;46113;50.130;8.526;2023-05-20T11:39:34;99242.22;;;14.84;51.54
27685;BME280;46113;50.130;8.526;2023-05-20T11:42:02;99237.25;;;14.43;52.38
27685;BME280;46113;50.130;8.526;2023-05-20T11:44:29;99224.63;;;14.70;51.17
27685;BME280;46113;50.130;8.526;2023-05-20T11:47:01;99216.28;;;15.10;52.01
27685;BME280;46113;50.130;8.526;2023-05-20T11:49:28;99215.19;;;15.13;50.00
27685;BME280;46113;50.130;8.526;2023-05-20T11:51:56;99217.59;;;15.73;49.93
27685;BME280;46113;50.130;8.526;2023-05-20T11:54:23;99226.56;;;15.84;49.28
27685;BME280;46113;50.130;8.526;2023-05-20T11:56:50;99208.28;;;15.10;50.29
27685;BME280;46113;50.130;8.526;2023-05-20T11:59:17;99198.94;;;15.50;49.92
27685;BME280;46113;50.130;8.526;2023-05-20T12:01:43;99216.06;;;15.25;50.41
27685;BME280;46113;50.130;8.526;2023-05-20T12:04:11;99188.03;;;15.42;49.98
27685;BME280;46113;50.130;8.526;2023-05-20T12:06:42;99207.66;;;15.64;48.66
27685;BME280;46113;50.130;8.526;2023-05-20T12:09:10;99194.47;;;15.40;50.39
27685;BME280;46113;50.130;8.526;2023-05-20T12:11:37;99201.88;;;15.24;50.39
27685;BME280;46113;50.130;8.526;2023-05-20T12:14:07;99206.59;;;15.44;49.75
27685;BME280;46113;50.130;8.526;2023-05-20T12:16:34;99208.84;;;15.83;49.64
27685;BME280;46113;50.130;8.526;2023-05-20T12:19:02;99203.91;;;15.44;49.64
27685;BME280;46113;50.130;8.526;2023-05-20T12:21:30;99200.50;;;15.87;49.51
27685;BME280;46113;50.130;8.526;2023-05-20T12:23:57;99205.69;;;16.33;48.27
27685;BME280;46113;50.130;8.526;2023-05-20T12:26:28;99202.44;;;16.29;47.42
27685;BME280;46113;50.130;8.526;2023-05-20T12:28:55;99196.16;;;16.73;47.34
27685;BME280;46113;50.130;8.526;2023-05-20T12:31:23;99201.16;;;16.12;47.66
27685;BME280;46113;50.130;8.526;2023-05-20T12:33:50;99207.94;;;16.71;46.73
27685;BME280;46113;50.130;8.526;2023-05-20T12:36:17;99190.03;;;16.40;47.22
27685;BME280;46113;50.130;8.526;2023-05-20T12:38:45;99188.63;;;16.78;47.19
27685;BME280;46113;50.130;8.526;2023-05-20T12:41:11;99193.97;;;17.09;46.17
27685;BME280;46113;50.130;8.526;2023-05-20T12:43:38;99199.16;;;17.32;45.33
27685;BME280;46113;50.130;8.526;2023-05-20T12:46:05;99195.59;;;17.53;44.81
27685;BME280;46113;50.130;8.526;2023-05-20T12:48:32;99195.50;;;17.02;47.58
27685;BME280;46113;50.130;8.526;2023-05-20T12:50:59;99187.81;;;16.66;47.28
27685;BME280;46113;50.130;8.526;2023-05-20T12:53:28;99190.19;;;16.48;48.38
27685;BME280;46113;50.130;8.526;2023-05-20T12:55:55;99185.16;;;16.12;48.04
27685;BME280;46113;50.130;8.526;2023-05-20T12:58:22;99182.28;;;16.58;47.61
27685;BME280;46113;50.130;8.526;2023-05-20T13:00:49;99176.09;;;16.36;48.14
27685;BME280;46113;50.130;8.526;2023-05-20T13:03:16;99174.59;;;16.11;48.38
27685;BME280;46113;50.130;8.526;2023-05-20T13:05:43;99171.88;;;16.22;48.63
27685;BME280;46113;50.130;8.526;2023-05-20T13:08:09;99169.47;;;16.73;48.94
27685;BME280;46113;50.130;8.526;2023-05-20T13:10:38;99164.69;;;16.34;48.28
27685;BME280;46113;50.130;8.526;2023-05-20T13:13:04;99164.16;;;16.40;48.05
27685;BME280;46113;50.130;8.526;2023-05-20T13:15:31;99160.47;;;16.53;48.09
27685;BME280;46113;50.130;8.526;2023-05-20T13:17:59;99159.53;;;16.64;48.36
27685;BME280;46113;50.130;8.526;2023-05-20T13:20:27;99155.50;;;16.48;48.44